Time;durP1;ratioP1;P1;durP2;ratioP2;P2;SDS_P1;SDS_P2;PMS_P1;PMS_P2;Temp;Humidity;BMP_temperature;BMP_pressure;BME280_temperature;BME280_humidity;BME280_pressure;Samples;Min_cycle;Max_cycle;Signal;HPM_P1;HPM_P2
2023/12/03 00:02:05;;;;;;;40.80;17.30;;;;;;;;;;4990038;28;20249;-66
2023/12/03 00:04:30;;;;;;;43.93;18.40;;;;;;;;;;4986676;28;20187;-66
2023/12/03 00:06:55;;;;;;;37.60;17.87;;;;;;;;;;4989343;28;20200;-67
2023/12/03 00:09:21;;;;;;;40.03;18.80;;;;;;;;;;4988865;28;20417;-67
2023/12/03 00:11:46;;;;;;;41.13;17.50;;;;;;;;;;4987123;28;20207;-67
2023/12/03 00:14:11;;;;;;;33.10;15.50;;;;;;;;;;4989938;28;20172;-66
2023/12/03 00:16:36;;;;;;;36.60;17.10;;;;;;;;;;4988697;28;20186;-67
2023/12/03 00:19:02;;;;;;;33.77;16.17;;;;;;;;;;4989354;28;20278;-66
2023/12/03 00:21:27;;;;;;;35.43;16.00;;;;;;;;;;4986034;28;20186;-67
2023/12/03 00:23:52;;;;;;;34.00;16.20;;;;;;;;;;4990982;28;20542;-66
2023/12/03 00:26:17;;;;;;;33.33;15.27;;;;;;;;;;4989215;28;20172;-67
2023/12/03 00:28:42;;;;;;;33.90;17.03;;;;;;;;;;4991258;28;20573;-66
2023/12/03 00:31:08;;;;;;;32.13;16.33;;;;;;;;;;4991971;28;20666;-66
2023/12/03 00:33:33;;;;;;;36.63;16.57;;;;;;;;;;4992320;28;20214;-66
2023/12/03 00:35:59;;;;;;;37.87;16.60;;;;;;;;;;4987536;28;20576;-66
2023/12/03 00:38:24;;;;;;;34.90;15.07;;;;;;;;;;4993510;28;20192;-67
2023/12/03 00:40:49;;;;;;;31.13;17.10;;;;;;;;;;4994207;28;20175;-66
2023/12/03 00:43:15;;;;;;;40.73;18.57;;;;;;;;;;4994473;28;20206;-66
2023/12/03 00:45:40;;;;;;;32.97;16.30;;;;;;;;;;4994380;28;20187;-66
2023/12/03 00:48:05;;;;;;;36.10;15.83;;;;;;;;;;4995971;28;20203;-67
2023/12/03 00:50:30;;;;;;;35.20;17.03;;;;;;;;;;4995181;28;20178;-65
2023/12/03 00:52:56;;;;;;;33.97;16.57;;;;;;;;;;4994461;28;20200;-66
2023/12/03 00:55:21;;;;;;;38.70;17.20;;;;;;;;;;4985185;28;20172;-65
2023/12/03 00:57:46;;;;;;;35.43;17.67;;;;;;;;;;4991444;28;20717;-67
2023/12/03 01:00:12;;;;;;;34.70;16.83;;;;;;;;;;4977775;28;20218;-66
2023/12/03 01:02:37;;;;;;;33.77;16.47;;;;;;;;;;4981225;28;20256;-66
2023/12/03 01:05:02;;;;;;;35.70;17.33;;;;;;;;;;4988802;28;20643;-66
2023/12/03 01:07:28;;;;;;;30.23;15.70;;;;;;;;;;4986166;28;20705;-67
2023/12/03 01:09:53;;;;;;;37.13;17.00;;;;;;;;;;4989915;28;20171;-66
2023/12/03 01:12:18;;;;;;;34.67;16.47;;;;;;;;;;4988557;28;20195;-66
2023/12/03 01:14:43;;;;;;;36.10;17.87;;;;;;;;;;4994720;28;20172;-66
2023/12/03 01:17:08;;;;;;;40.07;18.23;;;;;;;;;;5002375;28;20225;-66
2023/12/03 01:19:34;;;;;;;35.77;17.70;;;;;;;;;;4992337;28;20290;-66
2023/12/03 01:21:59;;;;;;;36.10;16.97;;;;;;;;;;4989702;28;20199;-66
2023/12/03 01:24:24;;;;;;;39.33;17.93;;;;;;;;;;4992741;28;20180;-66
2023/12/03 01:26:49;;;;;;;30.80;16.90;;;;;;;;;;4973757;28;20341;-66
2023/12/03 01:29:14;;;;;;;36.37;16.93;;;;;;;;;;4977956;28;20853;-66
2023/12/03 01:31:40;;;;;;;33.57;16.60;;;;;;;;;;4971949;28;20815;-66
2023/12/03 01:34:05;;;;;;;32.53;16.90;;;;;;;;;;4974127;28;20266;-67
2023/12/03 01:36:30;;;;;;;30.30;16.47;;;;;;;;;;4986273;28;20191;-66
2023/12/03 01:38:56;;;;;;;31.63;17.87;;;;;;;;;;4991128;28;20179;-67
2023/12/03 01:41:21;;;;;;;33.30;15.87;;;;;;;;;;4992509;28;20191;-67
2023/12/03 01:43:47;;;;;;;33.23;17.20;;;;;;;;;;4993550;28;20191;-66
2023/12/03 01:46:13;;;;;;;34.40;17.07;;;;;;;;;;4988006;28;20168;-67
2023/12/03 01:48:38;;;;;;;33.17;16.93;;;;;;;;;;4991680;28;20212;-67
2023/12/03 01:51:03;;;;;;;31.03;16.63;;;;;;;;;;4992834;28;20179;-67
2023/12/03 01:53:28;;;;;;;32.53;15.07;;;;;;;;;;4982476;28;20203;-67
2023/12/03 01:55:54;;;;;;;32.93;17.10;;;;;;;;;;4989278;28;20619;-67
2023/12/03 01:58:19;;;;;;;32.63;16.93;;;;;;;;;;4989579;28;20191;-67
2023/12/03 02:00:44;;;;;;;31.63;16.63;;;;;;;;;;4992019;28;20229;-67
2023/12/03 02:03:10;;;;;;;32.90;16.23;;;;;;;;;;4988860;23;20224;-66
2023/12/03 02:05:35;;;;;;;32.77;16.87;;;;;;;;;;4974009;28;20296;-66
2023/12/03 02:08:00;;;;;;;29.00;16.43;;;;;;;;;;4974119;28;20219;-67
2023/12/03 02:10:25;;;;;;;38.77;18.87;;;;;;;;;;4974007;28;20187;-66
2023/12/03 02:12:51;;;;;;;33.10;17.80;;;;;;;;;;4966527;28;20300;-67
2023/12/03 02:15:16;;;;;;;34.03;18.63;;;;;;;;;;4968371;28;20259;-66
2023/12/03 02:17:41;;;;;;;35.63;17.87;;;;;;;;;;4971853;28;20184;-66
2023/12/03 02:20:07;;;;;;;33.07;18.30;;;;;;;;;;4971889;28;20278;-66
2023/12/03 02:22:36;;;;;;;30.13;17.77;;;;;;;;;;4973116;28;20200;-67
2023/12/03 02:25:01;;;;;;;39.77;19.40;;;;;;;;;;4973704;28;20188;-67
2023/12/03 02:27:26;;;;;;;39.43;20.73;;;;;;;;;;4973479;28;20196;-67
2023/12/03 02:29:52;;;;;;;38.30;22.47;;;;;;;;;;4969244;28;20173;-67
2023/12/03 02:32:17;;;;;;;35.83;21.27;;;;;;;;;;4967254;28;20180;-67
2023/12/03 02:34:42;;;;;;;38.93;21.07;;;;;;;;;;4973343;28;20180;-67
2023/12/03 02:37:07;;;;;;;37.50;20.50;;;;;;;;;;4963615;28;20169;-67
2023/12/03 02:39:32;;;;;;;39.57;20.67;;;;;;;;;;4968489;28;20199;-67
2023/12/03 02:41:58;;;;;;;37.63;21.53;;;;;;;;;;4972036;28;20173;-67
2023/12/03 02:44:23;;;;;;;34.87;20.97;;;;;;;;;;4972786;28;20193;-67
2023/12/03 02:46:48;;;;;;;35.27;21.40;;;;;;;;;;4972255;28;20212;-67
2023/12/03 02:49:13;;;;;;;35.63;20.23;;;;;;;;;;4973033;28;20632;-67
2023/12/03 02:51:38;;;;;;;37.70;20.30;;;;;;;;;;4971804;28;20180;-67
2023/12/03 02:54:04;;;;;;;31.57;19.73;;;;;;;;;;4968958;28;20204;-66
2023/12/03 02:56:29;;;;;;;31.40;18.73;;;;;;;;;;4961084;28;20663;-66
2023/12/03 02:58:54;;;;;;;32.57;19.60;;;;;;;;;;4968219;28;20172;-66
2023/12/03 03:01:19;;;;;;;31.70;18.33;;;;;;;;;;4971325;28;20181;-67
2023/12/03 03:03:45;;;;;;;32.30;20.00;;;;;;;;;;4972976;28;20227;-66
2023/12/03 03:06:10;;;;;;;30.37;19.47;;;;;;;;;;4973147;28;20212;-67
2023/12/03 03:08:35;;;;;;;27.73;18.43;;;;;;;;;;4970667;28;20206;-66
2023/12/03 03:11:01;;;;;;;32.37;18.73;;;;;;;;;;4967979;28;20173;-67
2023/12/03 03:13:26;;;;;;;28.40;17.23;;;;;;;;;;4971042;28;20577;-67
2023/12/03 03:15:52;;;;;;;25.73;15.87;;;;;;;;;;4965495;28;20184;-67
2023/12/03 03:18:17;;;;;;;29.13;16.77;;;;;;;;;;4968578;28;20191;-67
2023/12/03 03:20:42;;;;;;;28.10;16.87;;;;;;;;;;4972209;28;20184;-67
2023/12/03 03:23:07;;;;;;;26.77;16.40;;;;;;;;;;4970310;28;20203;-67
2023/12/03 03:25:33;;;;;;;27.80;16.03;;;;;;;;;;4972457;28;20204;-67
2023/12/03 03:27:58;;;;;;;25.87;16.73;;;;;;;;;;4970030;28;20295;-67
2023/12/03 03:30:23;;;;;;;25.77;15.43;;;;;;;;;;4970432;28;20204;-67
2023/12/03 03:32:48;;;;;;;29.33;16.23;;;;;;;;;;4971530;28;20200;-67
2023/12/03 03:35:13;;;;;;;30.47;18.10;;;;;;;;;;4964050;28;21396;-66
2023/12/03 03:37:39;;;;;;;27.17;17.07;;;;;;;;;;4962799;28;20593;-67
2023/12/03 03:40:04;;;;;;;28.50;15.77;;;;;;;;;;4967192;28;20176;-67
2023/12/03 03:42:29;;;;;;;27.63;17.10;;;;;;;;;;4971605;28;20279;-67
2023/12/03 03:44:55;;;;;;;27.63;17.97;;;;;;;;;;4970747;28;20218;-67
2023/12/03 03:47:20;;;;;;;25.97;16.17;;;;;;;;;;4971355;28;20759;-66
2023/12/03 03:49:45;;;;;;;27.57;15.90;;;;;;;;;;4971617;28;20180;-67
2023/12/03 03:52:10;;;;;;;28.27;15.77;;;;;;;;;;4969460;28;20192;-66
2023/12/03 03:54:39;;;;;;;26.27;15.53;;;;;;;;;;4969299;28;20569;-67
2023/12/03 03:57:04;;;;;;;29.60;17.60;;;;;;;;;;4960919;28;20177;-67
2023/12/03 03:59:29;;;;;;;26.23;16.97;;;;;;;;;;4964384;28;20188;-66
2023/12/03 04:01:54;;;;;;;28.77;16.53;;;;;;;;;;4968253;28;20176;-67
2023/12/03 04:04:20;;;;;;;28.53;16.03;;;;;;;;;;4969638;28;20667;-66
2023/12/03 04:06:45;;;;;;;33.43;17.97;;;;;;;;;;4971527;28;20679;-67
2023/12/03 04:09:10;;;;;;;25.73;16.60;;;;;;;;;;4971195;28;20210;-66
2023/12/03 04:11:42;;;;;;;28.17;16.53;;;;;;;;;;4970421;28;20180;-66
2023/12/03 04:14:08;;;;;;;25.47;15.20;;;;;;;;;;4971658;28;20668;-67
2023/12/03 04:16:34;;;;;;;32.50;17.03;;;;;;;;;;4962747;28;20271;-66
2023/12/03 04:18:59;;;;;;;30.33;16.80;;;;;;;;;;4965888;28;20192;-66
2023/12/03 04:21:24;;;;;;;31.90;16.77;;;;;;;;;;4969503;28;20677;-66
2023/12/03 04:23:49;;;;;;;35.50;17.60;;;;;;;;;;4971278;28;20191;-67
2023/12/03 04:26:15;;;;;;;25.57;15.90;;;;;;;;;;4969521;28;20176;-67
2023/12/03 04:28:41;;;;;;;28.93;16.87;;;;;;;;;;4969802;28;20208;-67
2023/12/03 04:31:14;;;;;;;34.37;17.43;;;;;;;;;;4968444;28;20211;-67
2023/12/03 04:33:40;;;;;;;30.17;15.77;;;;;;;;;;4964688;28;20196;-67
2023/12/03 04:36:08;;;;;;;32.07;16.57;;;;;;;;;;4963020;28;20199;-67
2023/12/03 04:38:33;;;;;;;35.90;16.87;;;;;;;;;;4966962;28;20195;-67
2023/12/03 04:40:59;;;;;;;34.43;17.30;;;;;;;;;;4963183;28;20332;-67
2023/12/03 04:43:24;;;;;;;33.53;16.63;;;;;;;;;;4966637;28;20211;-67
2023/12/03 04:45:49;;;;;;;31.10;16.67;;;;;;;;;;4967861;28;20194;-67
2023/12/03 04:48:14;;;;;;;31.70;18.30;;;;;;;;;;4968698;28;20200;-67
2023/12/03 04:50:39;;;;;;;35.13;17.80;;;;;;;;;;4970579;28;20188;-67
2023/12/03 04:53:05;;;;;;;34.77;16.90;;;;;;;;;;4969906;28;20231;-67
2023/12/03 04:55:30;;;;;;;33.53;18.07;;;;;;;;;;4964656;28;20302;-67
2023/12/03 04:57:55;;;;;;;37.13;18.83;;;;;;;;;;4968494;28;20192;-67
2023/12/03 05:00:20;;;;;;;34.13;16.70;;;;;;;;;;4961037;28;20182;-67
2023/12/03 05:02:45;;;;;;;30.80;16.53;;;;;;;;;;4969838;28;20207;-67
2023/12/03 05:05:11;;;;;;;36.63;18.70;;;;;;;;;;4970933;28;20542;-67
2023/12/03 05:07:36;;;;;;;38.33;18.63;;;;;;;;;;4971280;28;20584;-66
2023/12/03 05:10:01;;;;;;;34.63;17.73;;;;;;;;;;4971366;28;20176;-67
2023/12/03 05:12:26;;;;;;;34.00;17.10;;;;;;;;;;4974036;28;20196;-67
2023/12/03 05:14:51;;;;;;;35.83;18.83;;;;;;;;;;4974099;28;20180;-67
2023/12/03 05:17:17;;;;;;;33.93;17.30;;;;;;;;;;4968052;28;20183;-68
2023/12/03 05:19:43;;;;;;;30.37;16.73;;;;;;;;;;4968764;28;20184;-67
2023/12/03 05:22:08;;;;;;;35.83;17.87;;;;;;;;;;4971878;28;20208;-67
2023/12/03 05:24:34;;;;;;;30.80;16.37;;;;;;;;;;4965887;28;20173;-67
2023/12/03 05:26:59;;;;;;;37.90;17.23;;;;;;;;;;4973044;28;20617;-67
2023/12/03 05:29:25;;;;;;;34.43;18.40;;;;;;;;;;4961854;28;20216;-67
2023/12/03 05:31:50;;;;;;;38.00;17.97;;;;;;;;;;4969740;28;20169;-67
2023/12/03 05:34:15;;;;;;;36.97;18.50;;;;;;;;;;4972535;28;20203;-67
2023/12/03 05:36:41;;;;;;;35.93;17.77;;;;;;;;;;4967283;28;20648;-67
2023/12/03 05:39:06;;;;;;;39.80;19.30;;;;;;;;;;4963584;28;20213;-67
2023/12/03 05:41:37;;;;;;;34.27;17.80;;;;;;;;;;4972748;28;20177;-67
2023/12/03 05:44:02;;;;;;;36.43;18.33;;;;;;;;;;4971562;28;20211;-67
2023/12/03 05:46:27;;;;;;;41.67;18.33;;;;;;;;;;4977430;28;20184;-67
2023/12/03 05:48:52;;;;;;;39.17;19.47;;;;;;;;;;4973708;28;20203;-67
2023/12/03 05:51:18;;;;;;;40.13;19.53;;;;;;;;;;4966080;28;20172;-67
2023/12/03 05:53:43;;;;;;;38.87;19.33;;;;;;;;;;4973755;28;20707;-66
2023/12/03 05:56:09;;;;;;;39.13;19.33;;;;;;;;;;4961228;28;20670;-67
2023/12/03 05:58:34;;;;;;;39.60;20.60;;;;;;;;;;4965013;28;20187;-67
2023/12/03 06:00:59;;;;;;;48.90;21.40;;;;;;;;;;4974765;28;20192;-67
2023/12/03 06:03:24;;;;;;;39.37;20.33;;;;;;;;;;4972936;28;20220;-67
2023/12/03 06:05:49;;;;;;;43.87;21.30;;;;;;;;;;4973426;28;20188;-67
2023/12/03 06:08:15;;;;;;;46.83;21.37;;;;;;;;;;4972747;28;20699;-68
2023/12/03 06:10:40;;;;;;;47.77;21.07;;;;;;;;;;4973084;28;20259;-67
2023/12/03 06:13:05;;;;;;;46.83;20.33;;;;;;;;;;4971674;28;20192;-66
2023/12/03 06:15:30;;;;;;;49.33;21.93;;;;;;;;;;4966224;28;20176;-67
2023/12/03 06:17:55;;;;;;;43.17;21.70;;;;;;;;;;4968387;28;20200;-67
2023/12/03 06:20:21;;;;;;;46.70;21.83;;;;;;;;;;4970532;28;20203;-67
2023/12/03 06:22:46;;;;;;;50.20;20.47;;;;;;;;;;4971264;28;20823;-67
2023/12/03 06:25:11;;;;;;;48.40;20.83;;;;;;;;;;4972628;28;20176;-67
2023/12/03 06:27:36;;;;;;;54.73;22.43;;;;;;;;;;4967419;28;20200;-66
2023/12/03 06:30:02;;;;;;;53.17;22.13;;;;;;;;;;4972157;28;20251;-66
2023/12/03 06:32:27;;;;;;;48.40;21.80;;;;;;;;;;4971949;28;20200;-66
2023/12/03 06:34:52;;;;;;;50.00;23.00;;;;;;;;;;4967833;28;20647;-67
2023/12/03 06:37:17;;;;;;;53.30;22.33;;;;;;;;;;4971001;28;20180;-66
2023/12/03 06:39:42;;;;;;;49.90;22.33;;;;;;;;;;4968514;28;20885;-68
2023/12/03 06:42:07;;;;;;;48.07;21.27;;;;;;;;;;4964738;28;20254;-68
2023/12/03 06:44:33;;;;;;;50.00;22.87;;;;;;;;;;4971915;28;20180;-67
2023/12/03 06:46:58;;;;;;;45.73;23.00;;;;;;;;;;4973241;28;20811;-67
2023/12/03 06:49:24;;;;;;;53.27;22.47;;;;;;;;;;4970987;28;20191;-67
2023/12/03 06:51:49;;;;;;;50.93;23.83;;;;;;;;;;4976807;28;20172;-67
2023/12/03 06:54:14;;;;;;;56.30;23.73;;;;;;;;;;4972514;28;20226;-67
2023/12/03 06:56:39;;;;;;;56.80;25.10;;;;;;;;;;4966545;28;20651;-67
2023/12/03 06:59:05;;;;;;;55.43;24.67;;;;;;;;;;4966744;28;20169;-67
2023/12/03 07:01:30;;;;;;;50.63;22.00;;;;;;;;;;4959932;28;20232;-67
2023/12/03 07:03:55;;;;;;;60.97;25.37;;;;;;;;;;4966796;28;20211;-67
2023/12/03 07:06:20;;;;;;;53.60;25.00;;;;;;;;;;4972193;28;20184;-67
2023/12/03 07:08:45;;;;;;;55.10;24.47;;;;;;;;;;4972316;28;20659;-67
2023/12/03 07:11:11;;;;;;;56.93;26.67;;;;;;;;;;4970687;28;20172;-67
2023/12/03 07:13:36;;;;;;;52.57;23.93;;;;;;;;;;4972174;28;20203;-68
2023/12/03 07:16:02;;;;;;;57.63;24.33;;;;;;;;;;4971107;28;20172;-67
2023/12/03 07:18:27;;;;;;;51.50;24.40;;;;;;;;;;4969551;28;20204;-68
2023/12/03 07:20:52;;;;;;;62.20;24.70;;;;;;;;;;4960368;28;20232;-68
2023/12/03 07:23:17;;;;;;;49.83;22.83;;;;;;;;;;4971950;28;20738;-67
2023/12/03 07:25:43;;;;;;;56.83;23.53;;;;;;;;;;4972335;28;20195;-67
2023/12/03 07:28:09;;;;;;;54.10;22.53;;;;;;;;;;4970005;28;20211;-68
2023/12/03 07:30:34;;;;;;;50.47;23.53;;;;;;;;;;4969991;28;20189;-67
2023/12/03 07:32:59;;;;;;;52.53;23.40;;;;;;;;;;4971281;28;20231;-67
2023/12/03 07:35:24;;;;;;;55.20;23.37;;;;;;;;;;4972508;28;20653;-67
2023/12/03 07:37:49;;;;;;;50.37;23.93;;;;;;;;;;4966809;28;20207;-67
2023/12/03 07:40:15;;;;;;;51.97;22.23;;;;;;;;;;4965097;28;20634;-67
2023/12/03 07:42:40;;;;;;;56.03;24.27;;;;;;;;;;4963685;28;20571;-67
2023/12/03 07:45:06;;;;;;;53.70;22.77;;;;;;;;;;4959391;28;20200;-67
2023/12/03 07:47:31;;;;;;;59.60;23.57;;;;;;;;;;4955860;28;20219;-67
2023/12/03 07:49:57;;;;;;;58.57;23.80;;;;;;;;;;4968649;28;20188;-67
2023/12/03 07:52:22;;;;;;;60.37;23.20;;;;;;;;;;4970086;28;20222;-67
2023/12/03 07:54:47;;;;;;;59.60;25.47;;;;;;;;;;4963312;28;20224;-67
2023/12/03 07:57:12;;;;;;;59.10;25.10;;;;;;;;;;4969932;28;20188;-67
2023/12/03 07:59:38;;;;;;;54.00;23.93;;;;;;;;;;4970440;28;20199;-67
2023/12/03 08:02:03;;;;;;;48.67;23.97;;;;;;;;;;4970197;28;20626;-67
2023/12/03 08:04:29;;;;;;;50.30;23.73;;;;;;;;;;4964560;28;20245;-67
2023/12/03 08:06:54;;;;;;;56.17;24.33;;;;;;;;;;4967144;28;20207;-67
2023/12/03 08:09:20;;;;;;;58.00;24.17;;;;;;;;;;4968334;28;20276;-67
2023/12/03 08:11:45;;;;;;;49.53;23.17;;;;;;;;;;4972839;28;20579;-67
2023/12/03 08:14:10;;;;;;;52.77;22.87;;;;;;;;;;4969460;28;20478;-67
2023/12/03 08:16:35;;;;;;;52.53;23.37;;;;;;;;;;4969768;28;20181;-67
2023/12/03 08:19:00;;;;;;;48.07;23.23;;;;;;;;;;4967030;28;20185;-67
2023/12/03 08:21:26;;;;;;;48.70;22.57;;;;;;;;;;4959908;28;20239;-67
2023/12/03 08:23:51;;;;;;;58.93;24.50;;;;;;;;;;4966441;28;20607;-67
2023/12/03 08:26:17;;;;;;;45.50;22.47;;;;;;;;;;4969355;28;20180;-67
2023/12/03 08:28:42;;;;;;;50.23;22.30;;;;;;;;;;4969845;28;20719;-67
2023/12/03 08:31:08;;;;;;;49.93;22.60;;;;;;;;;;4971690;28;20212;-67
2023/12/03 08:33:33;;;;;;;58.27;23.63;;;;;;;;;;4969234;28;20594;-66
2023/12/03 08:35:58;;;;;;;54.70;20.73;;;;;;;;;;4971931;28;20648;-67
2023/12/03 08:38:24;;;;;;;47.13;21.40;;;;;;;;;;4971268;28;20687;-67
2023/12/03 08:40:49;;;;;;;47.17;22.30;;;;;;;;;;4966472;28;20191;-67
2023/12/03 08:43:15;;;;;;;44.83;22.37;;;;;;;;;;4967072;28;20698;-67
2023/12/03 08:45:40;;;;;;;50.07;22.20;;;;;;;;;;4971096;28;20526;-67
2023/12/03 08:48:06;;;;;;;50.47;20.90;;;;;;;;;;4970003;28;20344;-67
2023/12/03 08:50:31;;;;;;;48.37;21.27;;;;;;;;;;4974204;28;20179;-67
2023/12/03 08:52:57;;;;;;;46.17;21.13;;;;;;;;;;4973627;28;20250;-67
2023/12/03 08:55:22;;;;;;;46.00;21.63;;;;;;;;;;4973379;28;20188;-67
2023/12/03 08:57:48;;;;;;;49.57;20.17;;;;;;;;;;4972295;28;20808;-67
2023/12/03 09:00:15;;;;;;;50.27;21.33;;;;;;;;;;4963521;28;20188;-67
2023/12/03 09:02:40;;;;;;;44.33;19.30;;;;;;;;;;4972450;28;20216;-67
2023/12/03 09:05:06;;;;;;;52.60;20.57;;;;;;;;;;4972974;28;20190;-68
2023/12/03 09:07:31;;;;;;;45.10;21.53;;;;;;;;;;4972958;28;20212;-68
2023/12/03 09:09:57;;;;;;;42.43;20.20;;;;;;;;;;4971666;28;20177;-68
2023/12/03 09:12:22;;;;;;;43.43;20.37;;;;;;;;;;4970670;28;20204;-67
2023/12/03 09:14:47;;;;;;;44.50;19.53;;;;;;;;;;4972663;28;20272;-67
2023/12/03 09:17:12;;;;;;;39.47;18.00;;;;;;;;;;4966030;28;20682;-67
2023/12/03 09:19:38;;;;;;;38.87;18.83;;;;;;;;;;4970457;28;20172;-67
2023/12/03 09:22:03;;;;;;;35.47;18.03;;;;;;;;;;4974853;28;20215;-67
2023/12/03 09:24:28;;;;;;;38.70;16.43;;;;;;;;;;4973893;28;20235;-67
2023/12/03 09:26:53;;;;;;;33.83;17.30;;;;;;;;;;4973318;28;20615;-67
2023/12/03 09:29:19;;;;;;;38.33;16.87;;;;;;;;;;4973526;28;20179;-68
2023/12/03 09:31:44;;;;;;;32.27;16.80;;;;;;;;;;4974971;28;20726;-67
2023/12/03 09:34:09;;;;;;;33.50;14.87;;;;;;;;;;4971416;28;20299;-67
2023/12/03 09:36:35;;;;;;;25.10;14.37;;;;;;;;;;4964330;28;20177;-68
2023/12/03 09:39:00;;;;;;;31.13;15.60;;;;;;;;;;4971680;28;20179;-67
2023/12/03 09:41:28;;;;;;;28.30;15.20;;;;;;;;;;4973477;28;20267;-67
2023/12/03 09:43:57;;;;;;;32.33;14.63;;;;;;;;;;4962738;28;20204;-67
2023/12/03 09:46:23;;;;;;;28.83;13.90;;;;;;;;;;4968625;28;20188;-67
2023/12/03 09:48:49;;;;;;;30.90;14.30;;;;;;;;;;4958082;28;20677;-68
2023/12/03 09:51:14;;;;;;;26.23;12.63;;;;;;;;;;4958482;28;20168;-67
2023/12/03 09:53:42;;;;;;;22.57;12.77;;;;;;;;;;4973216;28;20548;-67
2023/12/03 09:56:07;;;;;;;26.60;13.00;;;;;;;;;;4970033;28;20172;-68
2023/12/03 09:58:33;;;;;;;24.23;13.27;;;;;;;;;;4973894;28;20191;-66
2023/12/03 10:01:00;;;;;;;24.67;12.77;;;;;;;;;;4973157;28;20244;-67
2023/12/03 10:03:25;;;;;;;27.90;12.80;;;;;;;;;;4973263;28;20343;-66
2023/12/03 10:05:50;;;;;;;26.97;13.10;;;;;;;;;;4972133;28;20307;-67
2023/12/03 10:08:16;;;;;;;29.90;12.43;;;;;;;;;;4973191;28;20695;-68
2023/12/03 10:10:43;;;;;;;22.27;12.07;;;;;;;;;;4973943;28;20184;-67
2023/12/03 10:13:11;;;;;;;23.90;12.83;;;;;;;;;;4973159;28;20208;-67
2023/12/03 10:15:37;;;;;;;23.23;10.90;;;;;;;;;;4973016;28;20184;-67
2023/12/03 10:18:03;;;;;;;21.37;10.93;;;;;;;;;;4971767;28;20536;-67
2023/12/03 10:20:28;;;;;;;22.13;10.90;;;;;;;;;;4970124;28;20223;-67
2023/12/03 10:22:55;;;;;;;20.83;11.03;;;;;;;;;;4972548;28;20639;-66
2023/12/03 10:25:27;;;;;;;23.33;11.87;;;;;;;;;;4969930;28;20196;-67
2023/12/03 10:27:53;;;;;;;21.10;10.37;;;;;;;;;;4972550;28;20295;-67
2023/12/03 10:30:18;;;;;;;24.57;9.90;;;;;;;;;;4969232;28;20185;-66
2023/12/03 10:32:45;;;;;;;18.70;9.53;;;;;;;;;;4971341;28;20270;-67
2023/12/03 10:35:10;;;;;;;20.30;10.37;;;;;;;;;;4971084;28;20181;-67
2023/12/03 10:37:37;;;;;;;19.43;10.17;;;;;;;;;;4971873;28;20192;-66
2023/12/03 10:40:02;;;;;;;23.53;10.53;;;;;;;;;;4970553;28;20207;-67
2023/12/03 10:42:27;;;;;;;21.10;11.40;;;;;;;;;;4972308;28;20212;-66
2023/12/03 10:44:54;;;;;;;20.23;9.57;;;;;;;;;;4970895;28;20212;-66
2023/12/03 10:47:19;;;;;;;22.10;10.83;;;;;;;;;;4969883;28;20243;-66
2023/12/03 10:49:45;;;;;;;20.13;10.77;;;;;;;;;;4967848;28;20585;-67
2023/12/03 10:52:10;;;;;;;20.30;9.10;;;;;;;;;;4968593;28;20192;-66
2023/12/03 10:54:35;;;;;;;18.13;9.60;;;;;;;;;;4970471;28;20180;-67
2023/12/03 10:57:01;;;;;;;19.00;10.80;;;;;;;;;;4970634;28;20333;-67
2023/12/03 10:59:28;;;;;;;18.87;9.40;;;;;;;;;;4972156;28;20222;-67
2023/12/03 11:01:54;;;;;;;19.67;10.67;;;;;;;;;;4967517;28;20196;-67
2023/12/03 11:04:34;;;;;;;24.60;10.33;;;;;;;;;;4972409;28;20286;-67
2023/12/03 11:07:03;;;;;;;17.47;9.67;;;;;;;;;;4968246;28;20207;-66
2023/12/03 11:09:29;;;;;;;19.20;9.93;;;;;;;;;;4966646;28;20196;-66
2023/12/03 11:11:54;;;;;;;17.67;9.17;;;;;;;;;;4971351;28;20181;-67
2023/12/03 11:14:19;;;;;;;22.47;10.27;;;;;;;;;;4966673;28;20183;-67
2023/12/03 11:17:03;;;;;;;18.87;9.53;;;;;;;;;;4964997;28;20181;-65
2023/12/03 11:19:31;;;;;;;19.57;8.43;;;;;;;;;;4968139;28;20180;-66
2023/12/03 11:21:59;;;;;;;14.53;8.47;;;;;;;;;;4962183;28;20548;-66
2023/12/03 11:24:36;;;;;;;15.40;8.53;;;;;;;;;;4966143;28;20185;-65
2023/12/03 11:27:02;;;;;;;16.63;9.47;;;;;;;;;;4970325;28;20211;-65
2023/12/03 11:29:46;;;;;;;17.83;8.63;;;;;;;;;;4972930;28;20519;-66
2023/12/03 11:32:11;;;;;;;19.13;8.60;;;;;;;;;;4970019;28;20305;-66
2023/12/03 11:34:37;;;;;;;18.83;9.10;;;;;;;;;;4967777;28;20176;-67
2023/12/03 11:37:02;;;;;;;18.43;8.47;;;;;;;;;;4972064;28;20659;-66
2023/12/03 11:39:28;;;;;;;15.87;8.70;;;;;;;;;;4968413;28;20234;-67
2023/12/03 11:42:03;;;;;;;14.80;7.77;;;;;;;;;;4971490;28;20184;-66
2023/12/03 11:44:28;;;;;;;17.33;8.73;;;;;;;;;;4963051;28;20615;-67
2023/12/03 11:47:10;;;;;;;20.07;9.37;;;;;;;;;;4970220;28;20243;-67
2023/12/03 11:49:38;;;;;;;18.60;8.50;;;;;;;;;;4963787;28;20176;-67
2023/12/03 11:52:04;;;;;;;15.97;8.73;;;;;;;;;;4965116;28;20340;-66
2023/12/03 11:54:35;;;;;;;16.10;9.17;;;;;;;;;;4963820;28;20266;-67
2023/12/03 11:57:00;;;;;;;17.60;7.97;;;;;;;;;;4967893;28;20196;-66
2023/12/03 11:59:26;;;;;;;15.77;8.77;;;;;;;;;;4967082;28;20188;-67
2023/12/03 12:01:51;;;;;;;15.57;8.17;;;;;;;;;;4967840;28;20576;-66
2023/12/03 12:04:22;;;;;;;16.23;8.27;;;;;;;;;;4968936;28;20176;-66
2023/12/03 12:06:48;;;;;;;14.53;9.10;;;;;;;;;;4969251;28;20231;-65
2023/12/03 12:09:19;;;;;;;18.60;9.70;;;;;;;;;;4970982;28;20184;-66
2023/12/03 12:11:44;;;;;;;18.10;8.87;;;;;;;;;;4969722;28;20723;-66
2023/12/03 12:14:10;;;;;;;19.60;9.73;;;;;;;;;;4970118;28;20275;-66
2023/12/03 12:16:37;;;;;;;15.93;8.50;;;;;;;;;;4969649;28;20180;-67
2023/12/03 12:19:03;;;;;;;16.80;8.27;;;;;;;;;;4967854;28;20258;-67
2023/12/03 12:21:28;;;;;;;17.37;8.33;;;;;;;;;;4969881;28;20632;-67
2023/12/03 12:23:53;;;;;;;14.03;7.97;;;;;;;;;;4973366;28;20203;-68
2023/12/03 12:26:18;;;;;;;16.03;9.00;;;;;;;;;;4973489;28;20180;-66
2023/12/03 12:28:43;;;;;;;18.27;8.23;;;;;;;;;;4974110;28;20204;-68
2023/12/03 12:31:11;;;;;;;14.57;8.13;;;;;;;;;;4972884;28;20701;-67
2023/12/03 12:33:37;;;;;;;12.30;6.37;;;;;;;;;;4972688;28;20561;-67
2023/12/03 12:36:02;;;;;;;17.27;8.43;;;;;;;;;;4973171;28;20191;-67
2023/12/03 12:38:28;;;;;;;13.17;7.27;;;;;;;;;;4974135;28;20339;-67
2023/12/03 12:40:54;;;;;;;15.03;8.67;;;;;;;;;;4973641;28;20230;-67
2023/12/03 12:43:22;;;;;;;14.67;8.13;;;;;;;;;;4974781;28;20208;-67
2023/12/03 12:45:48;;;;;;;13.97;7.73;;;;;;;;;;4973173;28;20217;-67
2023/12/03 12:48:22;;;;;;;12.87;7.03;;;;;;;;;;4974543;28;20266;-66
2023/12/03 12:50:48;;;;;;;18.33;9.07;;;;;;;;;;4974006;28;20179;-67
2023/12/03 12:53:14;;;;;;;16.30;8.47;;;;;;;;;;4971589;28;20204;-66
2023/12/03 12:55:39;;;;;;;15.90;8.43;;;;;;;;;;4970399;28;20234;-67
2023/12/03 12:58:05;;;;;;;19.07;8.43;;;;;;;;;;4970418;28;20270;-66
2023/12/03 13:00:31;;;;;;;14.87;7.87;;;;;;;;;;4974149;28;20633;-66
2023/12/03 13:02:56;;;;;;;13.80;7.80;;;;;;;;;;4964246;28;20208;-66
2023/12/03 13:05:25;;;;;;;16.03;8.60;;;;;;;;;;4972886;28;20189;-67
2023/12/03 13:07:51;;;;;;;17.57;8.17;;;;;;;;;;4972853;28;20774;-66
2023/12/03 13:10:16;;;;;;;17.57;8.23;;;;;;;;;;4969594;28;20208;-66
2023/12/03 13:12:43;;;;;;;20.17;8.60;;;;;;;;;;4972705;28;20192;-66
2023/12/03 13:15:11;;;;;;;16.67;8.03;;;;;;;;;;4974456;28;20217;-67
2023/12/03 13:17:59;;;;;;;15.03;7.80;;;;;;;;;;4971585;28;20436;-67
2023/12/03 13:20:24;;;;;;;15.07;7.50;;;;;;;;;;4972030;28;20242;-67
2023/12/03 13:22:50;;;;;;;14.53;7.40;;;;;;;;;;4972711;28;20666;-65
2023/12/03 13:25:15;;;;;;;14.10;8.10;;;;;;;;;;4972758;28;20168;-66
2023/12/03 13:27:41;;;;;;;17.60;7.73;;;;;;;;;;4972600;28;20569;-66
2023/12/03 13:30:06;;;;;;;18.97;9.27;;;;;;;;;;4971392;28;20231;-67
2023/12/03 13:32:37;;;;;;;20.07;9.03;;;;;;;;;;4971486;28;20204;-66
2023/12/03 13:35:03;;;;;;;17.47;8.77;;;;;;;;;;4971116;28;20172;-67
2023/12/03 13:37:28;;;;;;;17.83;9.13;;;;;;;;;;4972621;28;20180;-67
2023/12/03 13:39:54;;;;;;;17.33;8.53;;;;;;;;;;4968492;28;20628;-66
2023/12/03 13:42:19;;;;;;;20.07;9.00;;;;;;;;;;4973115;28;20200;-66
2023/12/03 13:44:45;;;;;;;16.70;8.60;;;;;;;;;;4973608;28;20183;-67
2023/12/03 13:47:10;;;;;;;18.20;10.70;;;;;;;;;;4973235;28;20200;-65
2023/12/03 13:49:35;;;;;;;16.30;8.23;;;;;;;;;;4970827;28;20262;-66
2023/12/03 13:52:00;;;;;;;12.97;7.67;;;;;;;;;;4971719;28;20180;-66
2023/12/03 13:54:25;;;;;;;16.93;7.97;;;;;;;;;;4971230;28;20628;-67
2023/12/03 13:56:51;;;;;;;14.60;7.77;;;;;;;;;;4969657;28;20230;-66
2023/12/03 13:59:16;;;;;;;16.87;8.23;;;;;;;;;;4970692;28;20640;-68
2023/12/03 14:01:42;;;;;;;17.47;9.20;;;;;;;;;;4972170;28;20192;-67
2023/12/03 14:04:07;;;;;;;15.97;8.37;;;;;;;;;;5022203;23;20242;-67
2023/12/03 14:06:33;;;;;;;14.87;7.77;;;;;;;;;;5011464;28;20182;-66
2023/12/03 14:08:58;;;;;;;16.50;8.10;;;;;;;;;;5010256;28;20268;-67
2023/12/03 14:11:23;;;;;;;17.53;8.10;;;;;;;;;;5011444;28;20281;-65
2023/12/03 14:13:49;;;;;;;15.17;8.67;;;;;;;;;;4995593;28;20200;-68